LiveATC.Net - Listen to live air traffic control over the Internet!

Find LiveATC Audio Streams


Airport/ARTCC Code

Frequency
(e.g., 124.400, 128.75)
Site-wide search

Browse LiveATC Feeds
LiveATC Coverage Map
Top 50 LiveATC Feeds
Bad Weather Areas

LiveATC FAQ
Offer a LiveATC Feed
Contact LiveATC.net
Press Inquiries

LiveATC on iPhone
LiveATC on Android

Windows Phone
Windows 8/10

LiveATC Mobile
(Mobile browser)

ATC Audio Archives
Interesting Recordings

LiveATC Forums

Home Page
About LiveATC.net
Make a Donation
LiveATC Store

Terms of Use
Privacy Policy

Canadian Air Freqs

AIRMETs/SIGMETs

FAA Airport Status
Nat'l Airspace Status
Arrival Demand Charts


Server Software By:
Icecast.org
Liquidsoap


Current Potentially Bad Weather Airports
(updated every 30 minutes - sorted alphabetically by ICAO code)



This page lists LiveATC.net airport areas that may be interesting to listen to because of challenging flying (weather) conditions. Challenging weather conditions include low ceilings, limited visibility, high or gusty winds, or thunderstorms.

Updated: Mon Jul 25 02:10:01 UTC 2016
Click on airport name to go to that airport area's feeds.

CYAM TowerSault Ste. Marie Airport
WX MAP UNAVAILABLENearest METAR:
CYAM 250135Z 22004KT 4SM BR OVC006 22/21 A2977 RMK SF8 SLP083 DENSITY ALT 1700FT
EPGD Tower/ApproachGdansk Lech Walesa Airport
WX MAP UNAVAILABLENearest METAR:
EPGD 250130Z 31002KT 0150 R29/0500D FG VV001 15/15 Q1019
ESMQ Twr/ControlKalmar Airport
WX MAP UNAVAILABLENearest METAR:
ESMQ 250150Z AUTO 00000KT 9999 OVC008/// 14/14 Q1020
KARR TowerAurora Municipal Airport
karrNearest METAR:
KARR 250152Z AUTO 26004KT 10SM CLR 25/21 A2989 RMK AO2 LTG DSNT ALQDS SLP116 T02500211
Potomac App (DC ADIZ)Baltimore/Washington International Thurgood Marshall Airport
kbwiNearest METAR:
KBWI 250154Z 17003KT 10SM FEW065 FEW120 OVC250 28/21 A2997 RMK AO2 SLP148 OCNL LTGIC DSNT NW CB DSNT NW MOV E T02830211
KCMI Del/Gnd/Twr/AppUniversity of Illinois-Willard Airport
kcmiNearest METAR:
KCMI 250153Z 18004KT 9SM CLR 27/25 A2994 RMK AO2 LTG DSNT NW SLP130 T02670250
KDAB App/Dep (All)Daytona Beach International Airport
kdabNearest METAR:
KDAB 250153Z 13003KT 10SM FEW035 28/23 A3005 RMK AO2 SLP175 OCNL LTGIC DSNT NW CB DSNT NW T02780228 $
KDEC Tower/GroundDecatur Airport
kdecNearest METAR:
KDEC 250154Z 19007KT 10SM CLR 30/26 A2992 RMK AO2 LTG DSNT N SLP123 T03000256
KDPA Del/Gnd/Twr/MiscDupage Airport
kdpaNearest METAR:
KDPA 250152Z 23005KT 10SM CLR 27/20 A2988 RMK AO2 LTG DSNT N-SE SLP113 T02670200
KIAD Del/GndWashington Dulles International Airport
kiadNearest METAR:
KIAD 250152Z 26005KT 10SM BKN065 OVC250 31/20 A2999 RMK AO2 SLP152 LTG DSNT W T03110200
KJYO CTAF/Del/SFRALeesburg Executive Airport
kjyoNearest METAR:
KJYO 250155Z AUTO 00000KT 10SM SCT070 SCT075 BKN120 31/23 A3000 RMK AO2 LTG DSNT SW
KIND GroundIndianapolis International Airport
kindNearest METAR:
KIND 250154Z 22005KT 10SM FEW040 SCT250 28/24 A2996 RMK AO2 SLP138 OCNL LTGIC DSNT NW CB DSNT NW T02830244
KMKC Gnd/Twr/AppCharles B. Wheeler Downtown Airport
kmkcNearest METAR:
KMKC 250154Z 04010KT 10SM FEW024 29/22 A2995 RMK AO2 LTG DSNT S SLP134 T02890217 $
KMKE ApproachGeneral Mitchell International Airport
kmkeNearest METAR:
KMKE 250152Z 30007KT 10SM FEW028 FEW035 SCT200 BKN250 31/24 A2985 RMK AO2 SLP101 FRQ LTG DSNT SE-S CB DSNT SE-S T03110239
KOJC Gnd/Twr/App/ZKCJohnson County Executive Airport
kojcNearest METAR:
KOJC 250153Z 01008KT 10SM FEW024 29/25 A2997 RMK AO2 LTG DSNT E-S SLP132 T02940250
KPWK Del/Gnd/TowerChicago Executive Airport
kpwkNearest METAR:
KPWK 250152Z 21006KT 10SM VCTS CLR 25/21 A2988 RMK AO2 LTG DSNT W-N SLP114 T02500211
KRAC CTAFJohn H Batten Airport
kracNearest METAR:
KRAC 250153Z AUTO 29004KT 10SM FEW030 28/26 A2987 RMK AO2 LTG DSNT S SLP108 T02830261
KSTL Del/Gnd/TwrLambert-St Louis International Airport
kstlNearest METAR:
KSTL 250151Z 19008KT 10SM FEW050 SCT250 33/26 A2992 RMK AO2 SLP115 OCNL LTGIC DSNT N CB DSNT N MOV E TCU DSNT NW T03330256 $
KDMA/KTUS Twr/Ops/ZABDavis Monthan Air Force Base
ktusNearest METAR:
KTUS 250153Z 33012KT 10SM CLR 37/13 A2993 RMK AO2 LTG DSNT SW SLP077 T03670128
KDMA/KTUS Twr/Ops/ZABDavis Monthan Air Force Base
kdmaNearest METAR:
KDMA 250058Z AUTO 32014G18KT 10SM CLR 37/13 A2990 RMK AO2 LTG DSNT SW SLP074 T03700134 $
KUGN TowerWaukegan Regional Airport
kugnNearest METAR:
KUGN 250155Z AUTO 22012KT 10SM TS FEW029 SCT035 SCT046 27/21 A2987 RMK AO2 LTG DSNT S AND SW TSB47 SLP101 T02720211
KUOX CTAF/ZMEUniversity-Oxford Airport
kuoxNearest METAR:
KUOX 250135Z AUTO 09003KT 10SM CLR 26/25 A3000 RMK AO2 LTG DSNT S
KVLD Gnd/Twr/App/DepValdosta Regional Airport
kvldNearest METAR:
KVLD 250153Z AUTO 12005KT 10SM SCT075 27/23 A3004 RMK AO2 LTG DSNT S-NW SLP178 T02670228
KWJF Gnd/Twr/AppGeneral Wm J Fox Airfield
kwjfNearest METAR:
KWJF 250156Z 25019G24KT 1 1/2SM HZ FEW001 33/01 A2993 RMK AO2 PK WND 25026/0123 SLP108 T03330011
Bordeaux ControlAngouleme Airport
WX MAP UNAVAILABLENearest METAR:
LFBD 250130Z AUTO 00000KT CAVOK 16/14 Q1022 BECMG OVC005
MMGL Twr/AppDon Miguel Hidalgo y Costilla International
WX MAP UNAVAILABLENearest METAR:
MMGL 250146Z 26007KT 8SM SCT025CB BKN100 OVC300 20/15 A3018 RMK 8/963 FQT LTGIC NW
MSSS TowerIlopango International Airport
WX MAP UNAVAILABLENearest METAR:
MSSS 250150Z 00000KT 9999 FEW040CB 24/22 Q1015 A3000 RMK CB LTGIC TO NE
OPRN ApproachBenazir Bhutto International Airport
WX MAP UNAVAILABLENearest METAR:
OPRN 250200Z 13018KT 4000 TSRA FEW010ST FEW030CB SCT040 BKN100 25/22 Q1006.5/29.72
PALH TowerLake Hood Seaplane Base
palhNearest METAR:
PALH 250153Z 32005KT 1 1/4SM RA BR BKN014 OVC023 14/13 A2964 RMK AO2 RAB0057 SLP037 P0012 T01440128
PANC Del/Gnd/Twr/AppTed Stevens Anchorage International Airport
pancNearest METAR:
PANC 250153Z 00000KT 1 1/2SM R07R/6000VP6000FT RA BR FEW006 BKN025 OVC035 14/13 A2963 RMK AO2 SLP034 P0010 T01440128 $
PASC CTAF/Unicom/AFIS/AppDeadhorse Airport
WX MAP UNAVAILABLENearest METAR:
PASC 250153Z 08023G30KT 10SM CLR 09/01 A2990 RMK AO2 PK WND 08033/0101 SLP127 T00890011
SAZS Tower/ApproachSan Carlos de Bariloche Airport
WX MAP UNAVAILABLENearest METAR:
SAZS 250100Z 14008KT 5000 -SN SCT020 OVC050 00/M01 Q1018
Bermuda Tower/GroundL F Wade International Airport
WX MAP UNAVAILABLENearest METAR:
TXKF 250155Z 25007KT 9999 FEW020 SCT300 27/23 Q1020 RMK FRQ LTGICCC DSNT SE
URSS Gnd/Twr/AppSochi International Airport
WX MAP UNAVAILABLENearest METAR:
URSS 250130Z 08005MPS 9999 FEW033 19/16 Q1011 WS ALL RWY R06/090070 R02/090070 TEMPO VRB07G14MPS 1000 TSRA BKN004 BKN020CB RMK R02/05003MPS MT OBSC QFE757
YMML/YMMB/YMENEssendon Airport
WX MAP UNAVAILABLENearest METAR:
YMML 250157Z 34016G26KT 9999 SCT031 BKN165 13/04 Q1008 FM0400 34020G35KT 9999 SCT040 FM0200 MOD TURB BLW 5000FT TILL 0400 FM0400 MOD/SEV TURB BLW 5000FT
YPAD Gnd/Twr/App/CenterAdelaide International Airport
WX MAP UNAVAILABLENearest METAR:
YPAD 250135Z 35017G29KT 9999 VCSH FEW020 OVC045 12/09 Q1014 FM0200 31020G30KT 9999 -SHRA BKN020 BKN030 INTER 0230/0435 30025G40KT 5000 SHRA SCT020 BKN030 FM0200 MOD TURB BLW 5000FT
YSNW Gnd/CTAF/App/CenterNowra Military Airport
WX MAP UNAVAILABLENearest METAR:
YSNW 250130Z 28023G33KT 9999 FEW035 14/03 Q1010 FM0130 SEV TURB BLW 5000FT TILL 0400 FM0400 MOD/SEV TURB BLW 5000FT
ZAU Chicago Center (25)Chicago O'Hare International Airport
kordNearest METAR:
KORD 250151Z 19006KT 10SM SCT029 BKN040 BKN210 BKN250 24/22 A2988 RMK AO2 SLP112 FRQ LTGICCG DSNT NW-N CB DSNT NW-N T02390222